sensor_id;sensor_type;location;lat;lon;timestamp;P1;durP1;ratioP1;P2;durP2;ratioP2
64063;SDS011;50314;50.618;10.642;2023-08-24T00:00:20;4.60;;;2.72;;
64063;SDS011;50314;50.618;10.642;2023-08-24T00:02:46;4.55;;;3.20;;
64063;SDS011;50314;50.618;10.642;2023-08-24T00:05:12;4.20;;;2.90;;
64063;SDS011;50314;50.618;10.642;2023-08-24T00:07:38;3.97;;;3.17;;
64063;SDS011;50314;50.618;10.642;2023-08-24T00:10:04;4.38;;;2.83;;
64063;SDS011;50314;50.618;10.642;2023-08-24T00:12:30;3.40;;;2.70;;
64063;SDS011;50314;50.618;10.642;2023-08-24T00:14:58;5.35;;;3.72;;
64063;SDS011;50314;50.618;10.642;2023-08-24T00:17:23;5.45;;;3.25;;
64063;SDS011;50314;50.618;10.642;2023-08-24T00:19:49;3.42;;;2.78;;
64063;SDS011;50314;50.618;10.642;2023-08-24T00:22:15;6.00;;;2.90;;
64063;SDS011;50314;50.618;10.642;2023-08-24T00:24:41;4.40;;;3.30;;
64063;SDS011;50314;50.618;10.642;2023-08-24T00:27:06;6.32;;;3.08;;
64063;SDS011;50314;50.618;10.642;2023-08-24T00:29:32;4.95;;;2.90;;
64063;SDS011;50314;50.618;10.642;2023-08-24T00:31:57;3.88;;;2.85;;
64063;SDS011;50314;50.618;10.642;2023-08-24T00:34:23;4.32;;;2.63;;
64063;SDS011;50314;50.618;10.642;2023-08-24T00:36:48;3.05;;;2.40;;
64063;SDS011;50314;50.618;10.642;2023-08-24T00:39:14;3.90;;;2.53;;
64063;SDS011;50314;50.618;10.642;2023-08-24T00:41:41;3.88;;;2.53;;
64063;SDS011;50314;50.618;10.642;2023-08-24T00:44:07;3.35;;;2.75;;
64063;SDS011;50314;50.618;10.642;2023-08-24T00:46:33;4.07;;;3.38;;
64063;SDS011;50314;50.618;10.642;2023-08-24T00:48:59;3.47;;;2.92;;
64063;SDS011;50314;50.618;10.642;2023-08-24T00:51:25;3.25;;;2.45;;
64063;SDS011;50314;50.618;10.642;2023-08-24T00:53:51;3.20;;;2.45;;
64063;SDS011;50314;50.618;10.642;2023-08-24T00:56:17;3.50;;;2.55;;
64063;SDS011;50314;50.618;10.642;2023-08-24T00:58:45;2.90;;;2.22;;
64063;SDS011;50314;50.618;10.642;2023-08-24T01:01:12;3.30;;;3.00;;
64063;SDS011;50314;50.618;10.642;2023-08-24T01:03:38;4.28;;;2.50;;
64063;SDS011;50314;50.618;10.642;2023-08-24T01:06:03;5.30;;;2.83;;
64063;SDS011;50314;50.618;10.642;2023-08-24T01:08:29;4.65;;;2.83;;
64063;SDS011;50314;50.618;10.642;2023-08-24T01:11:02;3.33;;;2.58;;
64063;SDS011;50314;50.618;10.642;2023-08-24T01:16:42;3.22;;;2.80;;
64063;SDS011;50314;50.618;10.642;2023-08-24T01:19:13;4.13;;;2.50;;
64063;SDS011;50314;50.618;10.642;2023-08-24T01:21:59;4.05;;;2.50;;
64063;SDS011;50314;50.618;10.642;2023-08-24T01:24:34;3.35;;;2.70;;
64063;SDS011;50314;50.618;10.642;2023-08-24T01:27:06;3.58;;;2.67;;
64063;SDS011;50314;50.618;10.642;2023-08-24T01:29:35;5.53;;;2.80;;
64063;SDS011;50314;50.618;10.642;2023-08-24T01:32:01;5.18;;;3.03;;
64063;SDS011;50314;50.618;10.642;2023-08-24T01:34:27;4.05;;;2.78;;
64063;SDS011;50314;50.618;10.642;2023-08-24T01:36:53;3.58;;;2.67;;
64063;SDS011;50314;50.618;10.642;2023-08-24T01:39:28;3.75;;;2.70;;
64063;SDS011;50314;50.618;10.642;2023-08-24T01:42:00;3.80;;;2.40;;
64063;SDS011;50314;50.618;10.642;2023-08-24T01:44:30;4.15;;;2.40;;
64063;SDS011;50314;50.618;10.642;2023-08-24T01:47:00;4.05;;;2.40;;
64063;SDS011;50314;50.618;10.642;2023-08-24T01:49:29;3.83;;;2.50;;
64063;SDS011;50314;50.618;10.642;2023-08-24T01:51:55;3.33;;;2.20;;
64063;SDS011;50314;50.618;10.642;2023-08-24T01:56:48;3.25;;;1.98;;
64063;SDS011;50314;50.618;10.642;2023-08-24T01:59:13;3.58;;;2.30;;
64063;SDS011;50314;50.618;10.642;2023-08-24T02:01:39;3.30;;;2.38;;
64063;SDS011;50314;50.618;10.642;2023-08-24T02:04:04;3.60;;;2.92;;
64063;SDS011;50314;50.618;10.642;2023-08-24T02:06:30;3.35;;;2.20;;
64063;SDS011;50314;50.618;10.642;2023-08-24T02:08:55;4.53;;;2.30;;
64063;SDS011;50314;50.618;10.642;2023-08-24T02:11:21;3.00;;;2.28;;
64063;SDS011;50314;50.618;10.642;2023-08-24T02:13:46;4.47;;;3.00;;
64063;SDS011;50314;50.618;10.642;2023-08-24T02:16:11;3.88;;;2.58;;
64063;SDS011;50314;50.618;10.642;2023-08-24T02:18:38;3.65;;;2.45;;
64063;SDS011;50314;50.618;10.642;2023-08-24T02:21:09;3.17;;;2.25;;
64063;SDS011;50314;50.618;10.642;2023-08-24T02:23:37;4.05;;;2.38;;
64063;SDS011;50314;50.618;10.642;2023-08-24T02:26:03;3.97;;;2.47;;
64063;SDS011;50314;50.618;10.642;2023-08-24T02:28:29;3.40;;;2.35;;
64063;SDS011;50314;50.618;10.642;2023-08-24T02:30:59;4.93;;;2.63;;
64063;SDS011;50314;50.618;10.642;2023-08-24T02:33:25;3.35;;;2.47;;
64063;SDS011;50314;50.618;10.642;2023-08-24T02:35:51;3.78;;;2.60;;
64063;SDS011;50314;50.618;10.642;2023-08-24T02:38:16;3.38;;;2.17;;
64063;SDS011;50314;50.618;10.642;2023-08-24T02:40:42;3.30;;;2.60;;
64063;SDS011;50314;50.618;10.642;2023-08-24T02:43:07;3.03;;;2.22;;
64063;SDS011;50314;50.618;10.642;2023-08-24T02:45:33;3.30;;;1.85;;
64063;SDS011;50314;50.618;10.642;2023-08-24T02:47:58;3.20;;;2.15;;
64063;SDS011;50314;50.618;10.642;2023-08-24T02:50:24;4.05;;;2.35;;
64063;SDS011;50314;50.618;10.642;2023-08-24T02:52:49;3.10;;;2.47;;
64063;SDS011;50314;50.618;10.642;2023-08-24T02:57:41;2.72;;;2.05;;
64063;SDS011;50314;50.618;10.642;2023-08-24T03:00:07;3.70;;;2.33;;
64063;SDS011;50314;50.618;10.642;2023-08-24T03:02:35;2.67;;;2.00;;
64063;SDS011;50314;50.618;10.642;2023-08-24T03:05:01;4.30;;;2.03;;
64063;SDS011;50314;50.618;10.642;2023-08-24T03:07:27;5.82;;;2.90;;
64063;SDS011;50314;50.618;10.642;2023-08-24T03:09:53;2.78;;;2.53;;
64063;SDS011;50314;50.618;10.642;2023-08-24T03:12:18;3.15;;;2.17;;
64063;SDS011;50314;50.618;10.642;2023-08-24T03:14:44;4.30;;;2.30;;
64063;SDS011;50314;50.618;10.642;2023-08-24T03:17:09;2.80;;;2.55;;
64063;SDS011;50314;50.618;10.642;2023-08-24T03:19:35;2.67;;;2.00;;
64063;SDS011;50314;50.618;10.642;2023-08-24T03:22:01;3.13;;;2.38;;
64063;SDS011;50314;50.618;10.642;2023-08-24T03:24:27;4.55;;;2.70;;
64063;SDS011;50314;50.618;10.642;2023-08-24T03:26:53;3.50;;;2.53;;
64063;SDS011;50314;50.618;10.642;2023-08-24T03:29:18;2.75;;;2.00;;
64063;SDS011;50314;50.618;10.642;2023-08-24T03:31:44;3.53;;;2.50;;
64063;SDS011;50314;50.618;10.642;2023-08-24T03:34:09;2.60;;;2.13;;
64063;SDS011;50314;50.618;10.642;2023-08-24T03:36:35;2.80;;;2.17;;
64063;SDS011;50314;50.618;10.642;2023-08-24T03:39:00;4.70;;;2.60;;
64063;SDS011;50314;50.618;10.642;2023-08-24T03:41:26;3.03;;;2.17;;
64063;SDS011;50314;50.618;10.642;2023-08-24T03:43:51;3.20;;;2.13;;
64063;SDS011;50314;50.618;10.642;2023-08-24T03:46:17;3.03;;;2.25;;
64063;SDS011;50314;50.618;10.642;2023-08-24T03:48:43;6.25;;;2.60;;
64063;SDS011;50314;50.618;10.642;2023-08-24T03:51:08;3.65;;;2.35;;
64063;SDS011;50314;50.618;10.642;2023-08-24T03:53:34;3.13;;;2.10;;
64063;SDS011;50314;50.618;10.642;2023-08-24T03:55:59;4.22;;;2.30;;
64063;SDS011;50314;50.618;10.642;2023-08-24T03:58:25;4.50;;;2.28;;
64063;SDS011;50314;50.618;10.642;2023-08-24T04:00:50;2.35;;;1.95;;
64063;SDS011;50314;50.618;10.642;2023-08-24T04:03:16;2.63;;;1.95;;
64063;SDS011;50314;50.618;10.642;2023-08-24T04:05:42;3.38;;;2.58;;
64063;SDS011;50314;50.618;10.642;2023-08-24T04:08:07;3.15;;;2.22;;
64063;SDS011;50314;50.618;10.642;2023-08-24T04:10:33;4.72;;;2.28;;
64063;SDS011;50314;50.618;10.642;2023-08-24T04:12:58;3.08;;;1.95;;
64063;SDS011;50314;50.618;10.642;2023-08-24T04:15:24;4.28;;;2.10;;
64063;SDS011;50314;50.618;10.642;2023-08-24T04:17:50;2.33;;;1.88;;
64063;SDS011;50314;50.618;10.642;2023-08-24T04:20:15;4.00;;;2.20;;
64063;SDS011;50314;50.618;10.642;2023-08-24T04:22:41;2.88;;;1.90;;
64063;SDS011;50314;50.618;10.642;2023-08-24T04:25:09;3.78;;;2.28;;
64063;SDS011;50314;50.618;10.642;2023-08-24T04:27:36;3.75;;;1.80;;
64063;SDS011;50314;50.618;10.642;2023-08-24T04:30:02;3.13;;;2.30;;
64063;SDS011;50314;50.618;10.642;2023-08-24T04:32:28;2.20;;;1.77;;
64063;SDS011;50314;50.618;10.642;2023-08-24T04:34:54;3.13;;;2.30;;
64063;SDS011;50314;50.618;10.642;2023-08-24T04:37:19;2.75;;;2.05;;
64063;SDS011;50314;50.618;10.642;2023-08-24T04:39:45;3.10;;;2.05;;
64063;SDS011;50314;50.618;10.642;2023-08-24T04:42:11;3.97;;;2.30;;
64063;SDS011;50314;50.618;10.642;2023-08-24T04:44:37;4.47;;;2.20;;
64063;SDS011;50314;50.618;10.642;2023-08-24T04:47:02;2.08;;;1.65;;
64063;SDS011;50314;50.618;10.642;2023-08-24T04:49:29;2.72;;;1.92;;
64063;SDS011;50314;50.618;10.642;2023-08-24T04:51:55;4.78;;;2.30;;
64063;SDS011;50314;50.618;10.642;2023-08-24T04:54:21;2.60;;;1.90;;
64063;SDS011;50314;50.618;10.642;2023-08-24T04:56:46;2.83;;;2.00;;
64063;SDS011;50314;50.618;10.642;2023-08-24T04:59:12;3.20;;;2.10;;
64063;SDS011;50314;50.618;10.642;2023-08-24T05:01:38;4.35;;;2.30;;
64063;SDS011;50314;50.618;10.642;2023-08-24T05:04:03;4.28;;;2.17;;
64063;SDS011;50314;50.618;10.642;2023-08-24T05:06:29;2.53;;;2.05;;
64063;SDS011;50314;50.618;10.642;2023-08-24T05:08:54;3.45;;;2.35;;
64063;SDS011;50314;50.618;10.642;2023-08-24T05:11:22;3.20;;;2.50;;
64063;SDS011;50314;50.618;10.642;2023-08-24T05:13:51;3.70;;;2.25;;
64063;SDS011;50314;50.618;10.642;2023-08-24T05:16:17;4.03;;;2.47;;
64063;SDS011;50314;50.618;10.642;2023-08-24T05:18:42;4.00;;;2.10;;
64063;SDS011;50314;50.618;10.642;2023-08-24T05:21:08;4.55;;;2.40;;
64063;SDS011;50314;50.618;10.642;2023-08-24T05:23:34;4.30;;;2.38;;
64063;SDS011;50314;50.618;10.642;2023-08-24T05:26:00;4.25;;;2.15;;
64063;SDS011;50314;50.618;10.642;2023-08-24T05:28:27;3.42;;;2.25;;
64063;SDS011;50314;50.618;10.642;2023-08-24T05:30:54;4.10;;;2.28;;
64063;SDS011;50314;50.618;10.642;2023-08-24T05:33:20;2.88;;;2.20;;
64063;SDS011;50314;50.618;10.642;2023-08-24T05:35:47;3.42;;;2.20;;
64063;SDS011;50314;50.618;10.642;2023-08-24T05:38:16;2.92;;;1.90;;
64063;SDS011;50314;50.618;10.642;2023-08-24T05:40:42;3.35;;;2.40;;
64063;SDS011;50314;50.618;10.642;2023-08-24T05:43:09;4.82;;;2.30;;
64063;SDS011;50314;50.618;10.642;2023-08-24T05:45:35;2.55;;;2.13;;
64063;SDS011;50314;50.618;10.642;2023-08-24T05:48:01;2.72;;;1.95;;
64063;SDS011;50314;50.618;10.642;2023-08-24T05:50:27;2.72;;;1.95;;
64063;SDS011;50314;50.618;10.642;2023-08-24T05:52:52;3.47;;;2.28;;
64063;SDS011;50314;50.618;10.642;2023-08-24T05:55:18;3.30;;;2.10;;
64063;SDS011;50314;50.618;10.642;2023-08-24T05:57:44;2.75;;;2.10;;
64063;SDS011;50314;50.618;10.642;2023-08-24T06:00:10;4.60;;;2.72;;
64063;SDS011;50314;50.618;10.642;2023-08-24T06:02:36;4.15;;;2.03;;
64063;SDS011;50314;50.618;10.642;2023-08-24T06:05:02;3.50;;;2.30;;
64063;SDS011;50314;50.618;10.642;2023-08-24T06:07:28;3.58;;;2.30;;
64063;SDS011;50314;50.618;10.642;2023-08-24T06:09:56;3.45;;;2.22;;
64063;SDS011;50314;50.618;10.642;2023-08-24T06:12:21;4.28;;;2.22;;
64063;SDS011;50314;50.618;10.642;2023-08-24T06:14:47;4.80;;;1.98;;
64063;SDS011;50314;50.618;10.642;2023-08-24T06:17:13;2.15;;;1.73;;
64063;SDS011;50314;50.618;10.642;2023-08-24T06:19:38;3.70;;;2.30;;
64063;SDS011;50314;50.618;10.642;2023-08-24T06:22:04;3.47;;;2.03;;
64063;SDS011;50314;50.618;10.642;2023-08-24T06:24:29;3.83;;;2.63;;
64063;SDS011;50314;50.618;10.642;2023-08-24T06:26:55;2.75;;;2.10;;
64063;SDS011;50314;50.618;10.642;2023-08-24T06:29:21;3.90;;;2.28;;
64063;SDS011;50314;50.618;10.642;2023-08-24T06:31:46;2.95;;;2.08;;
64063;SDS011;50314;50.618;10.642;2023-08-24T06:34:12;2.65;;;2.38;;
64063;SDS011;50314;50.618;10.642;2023-08-24T06:36:37;5.22;;;2.22;;
64063;SDS011;50314;50.618;10.642;2023-08-24T06:39:03;2.25;;;2.05;;
64063;SDS011;50314;50.618;10.642;2023-08-24T06:41:33;6.40;;;2.10;;
64063;SDS011;50314;50.618;10.642;2023-08-24T06:44:01;2.65;;;2.10;;
64063;SDS011;50314;50.618;10.642;2023-08-24T06:46:27;4.03;;;2.30;;
64063;SDS011;50314;50.618;10.642;2023-08-24T06:48:54;3.58;;;2.35;;
64063;SDS011;50314;50.618;10.642;2023-08-24T06:51:19;3.67;;;2.08;;
64063;SDS011;50314;50.618;10.642;2023-08-24T06:53:45;5.20;;;2.60;;
64063;SDS011;50314;50.618;10.642;2023-08-24T06:56:13;3.15;;;2.20;;
64063;SDS011;50314;50.618;10.642;2023-08-24T06:58:42;3.10;;;2.08;;
64063;SDS011;50314;50.618;10.642;2023-08-24T07:01:08;4.05;;;2.45;;
64063;SDS011;50314;50.618;10.642;2023-08-24T07:03:34;2.75;;;2.38;;
64063;SDS011;50314;50.618;10.642;2023-08-24T07:05:59;4.88;;;2.30;;
64063;SDS011;50314;50.618;10.642;2023-08-24T07:08:25;3.92;;;2.40;;
64063;SDS011;50314;50.618;10.642;2023-08-24T07:10:50;6.07;;;2.08;;
64063;SDS011;50314;50.618;10.642;2023-08-24T07:13:16;2.97;;;2.28;;
64063;SDS011;50314;50.618;10.642;2023-08-24T07:15:41;3.63;;;2.42;;
64063;SDS011;50314;50.618;10.642;2023-08-24T07:18:07;3.60;;;2.33;;
64063;SDS011;50314;50.618;10.642;2023-08-24T07:20:34;3.42;;;2.40;;
64063;SDS011;50314;50.618;10.642;2023-08-24T07:23:00;3.47;;;2.30;;
64063;SDS011;50314;50.618;10.642;2023-08-24T07:25:25;4.28;;;2.35;;
64063;SDS011;50314;50.618;10.642;2023-08-24T07:27:52;3.25;;;2.22;;
64063;SDS011;50314;50.618;10.642;2023-08-24T07:30:23;3.75;;;2.20;;
64063;SDS011;50314;50.618;10.642;2023-08-24T07:32:49;5.45;;;2.40;;
64063;SDS011;50314;50.618;10.642;2023-08-24T07:35:15;3.42;;;2.08;;
64063;SDS011;50314;50.618;10.642;2023-08-24T07:37:41;7.40;;;2.38;;
64063;SDS011;50314;50.618;10.642;2023-08-24T07:43:18;5.82;;;2.60;;
64063;SDS011;50314;50.618;10.642;2023-08-24T07:45:43;3.55;;;2.33;;
64063;SDS011;50314;50.618;10.642;2023-08-24T07:48:09;5.55;;;2.90;;
64063;SDS011;50314;50.618;10.642;2023-08-24T07:50:35;3.78;;;2.40;;
64063;SDS011;50314;50.618;10.642;2023-08-24T07:53:00;5.68;;;2.60;;
64063;SDS011;50314;50.618;10.642;2023-08-24T07:55:26;3.58;;;2.40;;
64063;SDS011;50314;50.618;10.642;2023-08-24T07:57:51;4.60;;;2.65;;
64063;SDS011;50314;50.618;10.642;2023-08-24T08:00:17;4.63;;;2.33;;
64063;SDS011;50314;50.618;10.642;2023-08-24T08:02:43;4.30;;;2.55;;
64063;SDS011;50314;50.618;10.642;2023-08-24T08:05:08;4.78;;;2.05;;
64063;SDS011;50314;50.618;10.642;2023-08-24T08:07:37;3.30;;;2.20;;
64063;SDS011;50314;50.618;10.642;2023-08-24T08:10:04;3.83;;;2.10;;
64063;SDS011;50314;50.618;10.642;2023-08-24T08:12:30;3.50;;;2.17;;
64063;SDS011;50314;50.618;10.642;2023-08-24T08:14:57;4.40;;;2.20;;
64063;SDS011;50314;50.618;10.642;2023-08-24T08:17:22;5.38;;;2.63;;
64063;SDS011;50314;50.618;10.642;2023-08-24T08:19:48;3.63;;;2.60;;
64063;SDS011;50314;50.618;10.642;2023-08-24T08:22:14;3.42;;;2.30;;
64063;SDS011;50314;50.618;10.642;2023-08-24T08:24:39;2.60;;;2.30;;
64063;SDS011;50314;50.618;10.642;2023-08-24T08:27:05;3.20;;;2.25;;
64063;SDS011;50314;50.618;10.642;2023-08-24T08:29:31;4.28;;;2.78;;
64063;SDS011;50314;50.618;10.642;2023-08-24T08:31:56;3.60;;;2.58;;
64063;SDS011;50314;50.618;10.642;2023-08-24T08:34:22;4.18;;;2.65;;
64063;SDS011;50314;50.618;10.642;2023-08-24T08:36:47;3.97;;;2.95;;
64063;SDS011;50314;50.618;10.642;2023-08-24T08:39:13;4.57;;;2.55;;
64063;SDS011;50314;50.618;10.642;2023-08-24T08:41:42;3.38;;;2.58;;
64063;SDS011;50314;50.618;10.642;2023-08-24T08:44:09;3.58;;;2.70;;
64063;SDS011;50314;50.618;10.642;2023-08-24T08:46:38;4.65;;;2.85;;
64063;SDS011;50314;50.618;10.642;2023-08-24T08:49:06;4.60;;;2.70;;
64063;SDS011;50314;50.618;10.642;2023-08-24T08:51:33;3.50;;;2.67;;
64063;SDS011;50314;50.618;10.642;2023-08-24T08:58:51;5.88;;;3.03;;
64063;SDS011;50314;50.618;10.642;2023-08-24T09:01:20;9.30;;;3.80;;
64063;SDS011;50314;50.618;10.642;2023-08-24T09:03:47;8.32;;;4.25;;
64063;SDS011;50314;50.618;10.642;2023-08-24T09:06:13;9.23;;;4.63;;
64063;SDS011;50314;50.618;10.642;2023-08-24T09:08:39;6.90;;;4.05;;
64063;SDS011;50314;50.618;10.642;2023-08-24T09:11:05;12.93;;;3.88;;
64063;SDS011;50314;50.618;10.642;2023-08-24T09:13:33;5.55;;;3.10;;
64063;SDS011;50314;50.618;10.642;2023-08-24T09:16:02;8.45;;;3.60;;
64063;SDS011;50314;50.618;10.642;2023-08-24T09:18:36;7.13;;;3.45;;
64063;SDS011;50314;50.618;10.642;2023-08-24T09:21:09;6.32;;;3.47;;
64063;SDS011;50314;50.618;10.642;2023-08-24T09:23:37;5.53;;;2.78;;
64063;SDS011;50314;50.618;10.642;2023-08-24T09:26:03;4.40;;;3.15;;
64063;SDS011;50314;50.618;10.642;2023-08-24T09:28:30;5.95;;;3.40;;
64063;SDS011;50314;50.618;10.642;2023-08-24T09:30:55;5.03;;;3.00;;
64063;SDS011;50314;50.618;10.642;2023-08-24T09:33:26;5.25;;;3.00;;
64063;SDS011;50314;50.618;10.642;2023-08-24T09:35:52;6.28;;;2.70;;
64063;SDS011;50314;50.618;10.642;2023-08-24T09:38:26;4.30;;;3.30;;
64063;SDS011;50314;50.618;10.642;2023-08-24T09:40:53;5.53;;;3.25;;
64063;SDS011;50314;50.618;10.642;2023-08-24T09:43:20;6.72;;;3.30;;
64063;SDS011;50314;50.618;10.642;2023-08-24T09:45:53;4.63;;;3.00;;
64063;SDS011;50314;50.618;10.642;2023-08-24T09:48:20;3.90;;;2.60;;
64063;SDS011;50314;50.618;10.642;2023-08-24T09:50:48;3.78;;;2.40;;
64063;SDS011;50314;50.618;10.642;2023-08-24T09:53:21;5.10;;;3.13;;
64063;SDS011;50314;50.618;10.642;2023-08-24T09:55:54;3.35;;;2.50;;
64063;SDS011;50314;50.618;10.642;2023-08-24T09:58:24;2.90;;;2.40;;
64063;SDS011;50314;50.618;10.642;2023-08-24T10:00:50;7.00;;;2.92;;
64063;SDS011;50314;50.618;10.642;2023-08-24T10:03:20;10.88;;;2.95;;
64063;SDS011;50314;50.618;10.642;2023-08-24T10:05:52;5.22;;;2.60;;
64063;SDS011;50314;50.618;10.642;2023-08-24T10:08:20;3.03;;;2.42;;
64063;SDS011;50314;50.618;10.642;2023-08-24T10:10:53;4.80;;;2.60;;
64063;SDS011;50314;50.618;10.642;2023-08-24T10:13:23;7.80;;;3.00;;
64063;SDS011;50314;50.618;10.642;2023-08-24T10:15:56;3.53;;;2.50;;
64063;SDS011;50314;50.618;10.642;2023-08-24T10:18:23;3.67;;;2.63;;
64063;SDS011;50314;50.618;10.642;2023-08-24T10:20:51;3.03;;;2.58;;
64063;SDS011;50314;50.618;10.642;2023-08-24T10:23:17;4.05;;;2.80;;
64063;SDS011;50314;50.618;10.642;2023-08-24T10:25:46;3.13;;;2.58;;
64063;SDS011;50314;50.618;10.642;2023-08-24T10:28:12;3.55;;;2.40;;
64063;SDS011;50314;50.618;10.642;2023-08-24T10:33:07;3.67;;;1.85;;
64063;SDS011;50314;50.618;10.642;2023-08-24T10:35:33;3.42;;;2.33;;
64063;SDS011;50314;50.618;10.642;2023-08-24T10:37:59;7.03;;;2.67;;
64063;SDS011;50314;50.618;10.642;2023-08-24T10:40:35;5.00;;;2.20;;
64063;SDS011;50314;50.618;10.642;2023-08-24T10:43:03;3.42;;;2.03;;
64063;SDS011;50314;50.618;10.642;2023-08-24T10:53:58;2.47;;;1.65;;
64063;SDS011;50314;50.618;10.642;2023-08-24T10:59:10;3.40;;;1.60;;
64063;SDS011;50314;50.618;10.642;2023-08-24T11:01:38;4.78;;;2.00;;
64063;SDS011;50314;50.618;10.642;2023-08-24T11:04:04;2.42;;;1.60;;
64063;SDS011;50314;50.618;10.642;2023-08-24T11:06:31;2.78;;;1.70;;
64063;SDS011;50314;50.618;10.642;2023-08-24T11:09:06;2.40;;;1.63;;
64063;SDS011;50314;50.618;10.642;2023-08-24T11:11:42;4.95;;;1.67;;
64063;SDS011;50314;50.618;10.642;2023-08-24T11:14:19;2.47;;;1.50;;
64063;SDS011;50314;50.618;10.642;2023-08-24T11:16:50;2.78;;;1.48;;
64063;SDS011;50314;50.618;10.642;2023-08-24T11:19:17;2.05;;;1.60;;
64063;SDS011;50314;50.618;10.642;2023-08-24T11:21:43;2.35;;;1.50;;
64063;SDS011;50314;50.618;10.642;2023-08-24T11:24:13;2.55;;;1.80;;
64063;SDS011;50314;50.618;10.642;2023-08-24T11:26:43;3.15;;;1.45;;
64063;SDS011;50314;50.618;10.642;2023-08-24T11:29:10;2.72;;;1.63;;
64063;SDS011;50314;50.618;10.642;2023-08-24T11:31:36;3.50;;;1.50;;
64063;SDS011;50314;50.618;10.642;2023-08-24T11:34:02;3.75;;;1.70;;
64063;SDS011;50314;50.618;10.642;2023-08-24T11:36:29;5.65;;;1.70;;
64063;SDS011;50314;50.618;10.642;2023-08-24T11:38:57;2.47;;;1.67;;
64063;SDS011;50314;50.618;10.642;2023-08-24T11:41:24;3.88;;;1.80;;
64063;SDS011;50314;50.618;10.642;2023-08-24T11:43:55;2.95;;;1.75;;
64063;SDS011;50314;50.618;10.642;2023-08-24T11:46:24;2.83;;;1.40;;
64063;SDS011;50314;50.618;10.642;2023-08-24T11:48:49;2.40;;;1.60;;
64063;SDS011;50314;50.618;10.642;2023-08-24T11:51:16;2.45;;;1.73;;
64063;SDS011;50314;50.618;10.642;2023-08-24T11:53:43;2.20;;;1.48;;
64063;SDS011;50314;50.618;10.642;2023-08-24T11:56:10;2.35;;;1.75;;
64063;SDS011;50314;50.618;10.642;2023-08-24T11:58:40;1.80;;;1.60;;
64063;SDS011;50314;50.618;10.642;2023-08-24T12:01:06;3.40;;;1.77;;
64063;SDS011;50314;50.618;10.642;2023-08-24T12:03:34;2.75;;;1.92;;
64063;SDS011;50314;50.618;10.642;2023-08-24T12:06:00;2.83;;;1.65;;
64063;SDS011;50314;50.618;10.642;2023-08-24T12:08:28;2.70;;;1.98;;
64063;SDS011;50314;50.618;10.642;2023-08-24T12:10:54;3.17;;;1.60;;
64063;SDS011;50314;50.618;10.642;2023-08-24T12:13:20;2.58;;;1.80;;
64063;SDS011;50314;50.618;10.642;2023-08-24T12:15:47;2.33;;;1.67;;
64063;SDS011;50314;50.618;10.642;2023-08-24T12:18:15;4.15;;;1.90;;
64063;SDS011;50314;50.618;10.642;2023-08-24T12:20:41;3.15;;;1.90;;
64063;SDS011;50314;50.618;10.642;2023-08-24T12:23:07;2.40;;;1.90;;
64063;SDS011;50314;50.618;10.642;2023-08-24T12:25:37;2.85;;;2.05;;
64063;SDS011;50314;50.618;10.642;2023-08-24T12:28:15;2.33;;;1.58;;
64063;SDS011;50314;50.618;10.642;2023-08-24T12:30:48;2.53;;;1.80;;
64063;SDS011;50314;50.618;10.642;2023-08-24T12:33:22;3.03;;;1.55;;
64063;SDS011;50314;50.618;10.642;2023-08-24T12:35:51;5.35;;;2.05;;
64063;SDS011;50314;50.618;10.642;2023-08-24T12:38:17;2.92;;;1.80;;
64063;SDS011;50314;50.618;10.642;2023-08-24T12:40:43;3.53;;;1.67;;
64063;SDS011;50314;50.618;10.642;2023-08-24T12:43:09;4.28;;;2.03;;
64063;SDS011;50314;50.618;10.642;2023-08-24T12:45:34;5.68;;;2.10;;
64063;SDS011;50314;50.618;10.642;2023-08-24T12:48:02;5.03;;;1.70;;
64063;SDS011;50314;50.618;10.642;2023-08-24T12:50:32;4.45;;;2.08;;
64063;SDS011;50314;50.618;10.642;2023-08-24T12:52:58;7.07;;;2.60;;
64063;SDS011;50314;50.618;10.642;2023-08-24T12:55:28;2.83;;;2.03;;
64063;SDS011;50314;50.618;10.642;2023-08-24T12:57:54;3.78;;;1.85;;
64063;SDS011;50314;50.618;10.642;2023-08-24T13:00:19;4.25;;;1.92;;
64063;SDS011;50314;50.618;10.642;2023-08-24T13:02:46;2.92;;;1.88;;
64063;SDS011;50314;50.618;10.642;2023-08-24T13:07:38;2.90;;;1.67;;
64063;SDS011;50314;50.618;10.642;2023-08-24T13:10:04;5.13;;;1.90;;
64063;SDS011;50314;50.618;10.642;2023-08-24T13:12:31;3.75;;;2.00;;
64063;SDS011;50314;50.618;10.642;2023-08-24T13:14:57;7.85;;;2.20;;
64063;SDS011;50314;50.618;10.642;2023-08-24T13:17:23;2.42;;;1.77;;
64063;SDS011;50314;50.618;10.642;2023-08-24T13:19:48;4.03;;;1.80;;
64063;SDS011;50314;50.618;10.642;2023-08-24T13:22:14;4.53;;;2.40;;
64063;SDS011;50314;50.618;10.642;2023-08-24T13:24:40;4.03;;;2.08;;
64063;SDS011;50314;50.618;10.642;2023-08-24T13:27:08;3.80;;;2.13;;
64063;SDS011;50314;50.618;10.642;2023-08-24T13:29:35;2.67;;;1.70;;
64063;SDS011;50314;50.618;10.642;2023-08-24T13:32:02;2.75;;;2.05;;
64063;SDS011;50314;50.618;10.642;2023-08-24T13:34:28;3.92;;;2.42;;
64063;SDS011;50314;50.618;10.642;2023-08-24T13:36:53;4.70;;;2.10;;
64063;SDS011;50314;50.618;10.642;2023-08-24T13:39:18;3.60;;;2.08;;
64063;SDS011;50314;50.618;10.642;2023-08-24T13:41:44;2.83;;;1.88;;
64063;SDS011;50314;50.618;10.642;2023-08-24T13:44:09;4.75;;;2.13;;
64063;SDS011;50314;50.618;10.642;2023-08-24T13:46:35;3.15;;;1.88;;
64063;SDS011;50314;50.618;10.642;2023-08-24T13:49:00;4.93;;;2.15;;
64063;SDS011;50314;50.618;10.642;2023-08-24T13:51:27;4.22;;;2.10;;
64063;SDS011;50314;50.618;10.642;2023-08-24T13:53:53;2.92;;;2.17;;
64063;SDS011;50314;50.618;10.642;2023-08-24T13:56:18;3.47;;;2.35;;
64063;SDS011;50314;50.618;10.642;2023-08-24T13:58:44;4.05;;;2.30;;
64063;SDS011;50314;50.618;10.642;2023-08-24T14:01:09;4.57;;;2.13;;
64063;SDS011;50314;50.618;10.642;2023-08-24T14:03:35;4.50;;;2.38;;
64063;SDS011;50314;50.618;10.642;2023-08-24T14:06:03;3.33;;;1.90;;
64063;SDS011;50314;50.618;10.642;2023-08-24T14:08:28;3.70;;;2.00;;
64063;SDS011;50314;50.618;10.642;2023-08-24T14:10:54;4.05;;;2.50;;
64063;SDS011;50314;50.618;10.642;2023-08-24T14:13:20;4.65;;;2.05;;
64063;SDS011;50314;50.618;10.642;2023-08-24T14:15:47;3.83;;;2.10;;
64063;SDS011;50314;50.618;10.642;2023-08-24T14:18:14;3.05;;;1.83;;
64063;SDS011;50314;50.618;10.642;2023-08-24T14:20:40;5.88;;;2.17;;
64063;SDS011;50314;50.618;10.642;2023-08-24T14:23:06;4.78;;;2.03;;
64063;SDS011;50314;50.618;10.642;2023-08-24T14:25:31;2.78;;;1.83;;
64063;SDS011;50314;50.618;10.642;2023-08-24T14:27:57;3.20;;;2.20;;
64063;SDS011;50314;50.618;10.642;2023-08-24T14:30:23;5.20;;;2.28;;
64063;SDS011;50314;50.618;10.642;2023-08-24T14:32:48;3.33;;;2.10;;
64063;SDS011;50314;50.618;10.642;2023-08-24T14:35:14;5.00;;;1.95;;
64063;SDS011;50314;50.618;10.642;2023-08-24T14:37:39;5.65;;;2.65;;
64063;SDS011;50314;50.618;10.642;2023-08-24T14:40:06;3.65;;;2.30;;
64063;SDS011;50314;50.618;10.642;2023-08-24T14:42:32;3.28;;;2.13;;
64063;SDS011;50314;50.618;10.642;2023-08-24T14:44:57;3.95;;;2.28;;
64063;SDS011;50314;50.618;10.642;2023-08-24T14:47:24;4.80;;;2.20;;
64063;SDS011;50314;50.618;10.642;2023-08-24T14:49:49;4.80;;;2.35;;
64063;SDS011;50314;50.618;10.642;2023-08-24T14:52:15;3.03;;;2.00;;
64063;SDS011;50314;50.618;10.642;2023-08-24T14:54:40;3.50;;;2.15;;
64063;SDS011;50314;50.618;10.642;2023-08-24T14:57:06;4.45;;;2.08;;
64063;SDS011;50314;50.618;10.642;2023-08-24T14:59:32;7.28;;;2.50;;
64063;SDS011;50314;50.618;10.642;2023-08-24T15:01:58;4.43;;;2.25;;